This is the latest recevied weather packets stored in our database for station/object 9W2SHB-13. If no packets are shown the sender has not sent any weather packets the latest 10 day(s).
| Time | Temp. | Humidity | Pressure | Rain* | Wind** | Luminosity | Snow |
|---|---|---|---|---|---|---|---|
| 1777871707 | 32.22° C | 62% | 1029.4 hPa | - | - | - | - |
| 1777870807 | 32.22° C | 62% | 1029.6 hPa | - | - | - | - |
| 1777869907 | 32.22° C | 62% | 1029.7 hPa | - | - | - | - |
| 1777869007 | 31.67° C | 62% | 1030.1 hPa | - | - | - | - |
| 1777868108 | 31.67° C | 62% | 1030.3 hPa | - | - | - | - |
| 1777866307 | 31.11° C | 64% | 1030.7 hPa | - | - | - | - |
| 1777864507 | 31.11° C | 65% | 1030.7 hPa | - | - | - | - |
| 1777846507 | 29.44° C | 67% | 1028.5 hPa | - | - | - | - |
| 1777844707 | 29.44° C | 66% | 1028.2 hPa | - | - | - | - |
| 1777842007 | 29.44° C | 66% | 1028 hPa | - | - | - | - |
| 1777836608 | 30° C | 66% | 1028.3 hPa | - | - | - | - |
| 1777833006 | 30° C | 66% | 1029 hPa | - | - | - | - |
| 1777822207 | 30.56° C | 64% | 1030.1 hPa | - | - | - | - |
| 1777820407 | 30.56° C | 64% | 1030.1 hPa | - | - | - | - |
| 1777816807 | 31.11° C | 65% | 1030.1 hPa | - | - | - | - |
| 1777806008 | 31.67° C | 59% | 1026.4 hPa | - | - | - | - |
| 1777802407 | 31.67° C | 61% | 1025.6 hPa | - | - | - | - |
| 1777800607 | 31.11° C | 62% | 1025.7 hPa | - | - | - | - |
| 1777799707 | 32.78° C | 58% | 1025.3 hPa | - | - | - | - |
| 1777798806 | 32.78° C | 58% | 1024.9 hPa | - | - | - | - |
| 1777797007 | 32.78° C | 59% | 1024.7 hPa | - | - | - | - |
| 1777796106 | 32.78° C | 58% | 1024.7 hPa | - | - | - | - |
| 1777795207 | 32.78° C | 58% | 1024.7 hPa | - | - | - | - |
| 1777794306 | 32.78° C | 58% | 1024.8 hPa | - | - | - | - |
| 1777793407 | 32.78° C | 59% | 1025.1 hPa | - | - | - | - |
* Rain since midnight (hover to see other rain measurements)
** Current wind speed in m/s (hover to see current wind gust speed)